createdAt,value
2017-04-06T00:01:13.302Z,24.81
2017-04-06T00:02:13.235Z,24.91
2017-04-06T00:03:13.171Z,24.72
2017-04-06T00:04:13.116Z,24.81
2017-04-06T00:05:13.045Z,24.81
2017-04-06T00:06:12.987Z,24.8
2017-04-06T00:07:12.996Z,24.72
2017-04-06T00:08:12.856Z,24.71
2017-04-06T00:09:12.794Z,24.9
2017-04-06T00:10:12.731Z,24.72
2017-04-06T00:11:12.670Z,24.72
2017-04-06T00:12:12.622Z,24.72
2017-04-06T00:13:12.544Z,24.81
2017-04-06T00:14:12.481Z,24.8
2017-04-06T00:15:12.417Z,24.81
2017-04-06T00:16:12.354Z,24.91
2017-04-06T00:17:12.294Z,24.72
2017-04-06T00:18:12.230Z,24.72
2017-04-06T00:19:12.171Z,24.81
2017-04-06T00:20:12.107Z,24.71
2017-04-06T00:21:12.043Z,24.8
2017-04-06T00:22:11.981Z,24.8
2017-04-06T00:23:11.916Z,24.71
2017-04-06T00:24:11.858Z,24.72
2017-04-06T00:25:11.794Z,24.81
2017-04-06T00:26:11.426Z,24.52
2017-04-06T00:27:11.667Z,24.9
2017-04-06T00:28:11.604Z,24.91
2017-04-06T00:29:11.543Z,24.8
2017-04-06T00:30:11.479Z,24.81
2017-04-06T00:31:11.418Z,24.8
2017-04-06T00:32:11.356Z,24.91
2017-04-06T00:33:11.290Z,24.71
2017-04-06T00:34:11.231Z,24.81
2017-04-06T00:35:11.167Z,24.9
2017-04-06T00:36:11.104Z,24.91
2017-04-06T00:37:11.041Z,24.71
2017-04-06T00:38:10.977Z,24.81
2017-04-06T00:39:10.924Z,25.01
2017-04-06T00:40:10.905Z,24.91
2017-04-06T00:41:10.790Z,24.81
2017-04-06T00:42:10.780Z,24.81
2017-04-06T00:43:10.666Z,24.81
2017-04-06T00:44:10.603Z,24.9
2017-04-06T00:45:10.539Z,24.8
2017-04-06T00:46:10.483Z,24.72
2017-04-06T00:47:10.416Z,24.72
2017-04-06T00:48:10.353Z,24.8
2017-04-06T00:49:10.289Z,24.72
2017-04-06T00:50:10.226Z,24.72
2017-04-06T00:51:10.169Z,24.72
2017-04-06T00:52:10.108Z,24.72
2017-04-06T00:53:10.039Z,24.8
2017-04-06T00:54:09.976Z,24.72
2017-04-06T00:55:09.914Z,24.91
2017-04-06T00:56:09.553Z,24.9
2017-04-06T00:57:09.789Z,24.91
2017-04-06T00:58:09.726Z,25.1
2017-04-06T00:59:09.663Z,24.91
2017-04-06T01:00:09.604Z,24.72
2017-04-06T01:01:09.566Z,24.91
2017-04-06T01:02:09.477Z,24.91
2017-04-06T01:03:09.413Z,25.01
2017-04-06T01:04:09.352Z,25.01
2017-04-06T01:05:09.288Z,24.8
2017-04-06T01:06:08.921Z,24.91
2017-04-06T01:07:09.163Z,24.91
2017-04-06T01:08:08.797Z,24.91
2017-04-06T01:09:09.037Z,24.9
2017-04-06T01:10:08.975Z,24.9
2017-04-06T01:11:08.919Z,24.72
2017-04-06T01:12:08.849Z,24.91
2017-04-06T01:13:08.939Z,24.91
2017-04-06T01:14:08.724Z,24.91
2017-04-06T01:15:08.661Z,24.99
2017-04-06T01:16:08.607Z,24.81
2017-04-06T01:17:08.233Z,24.8
2017-04-06T01:18:08.476Z,24.91
2017-04-06T01:19:08.412Z,24.8
2017-04-06T01:20:08.045Z,24.8
2017-04-06T01:21:08.284Z,24.72
2017-04-06T01:22:07.919Z,24.91
2017-04-06T01:23:08.161Z,25.01
2017-04-06T01:24:08.095Z,24.8
2017-04-06T01:25:08.035Z,24.71
2017-04-06T01:26:07.973Z,25.2
2017-04-06T01:27:07.909Z,24.81
2017-04-06T01:28:07.848Z,25.01
2017-04-06T01:29:07.784Z,24.72
2017-04-06T01:30:07.724Z,24.81
2017-04-06T01:31:07.661Z,24.9
2017-04-06T01:32:07.596Z,24.9
2017-04-06T01:33:07.243Z,24.8
2017-04-06T01:34:07.499Z,25.2
2017-04-06T01:35:07.412Z,24.9
2017-04-06T01:36:07.044Z,24.99
2017-04-06T01:37:07.287Z,25.19
2017-04-06T01:38:07.222Z,25.01
2017-04-06T01:39:07.159Z,25.2
2017-04-06T01:40:07.098Z,24.8
2017-04-06T01:41:07.039Z,25.1
2017-04-06T01:42:06.973Z,24.99
2017-04-06T01:43:06.633Z,25.1
2017-04-06T01:44:06.846Z,24.99
2017-04-06T01:45:06.785Z,25.09
2017-04-06T01:46:06.721Z,24.8
2017-04-06T01:47:06.660Z,25.01
2017-04-06T01:48:06.595Z,24.99
2017-04-06T01:49:06.532Z,24.9
2017-04-06T01:50:06.471Z,24.99
2017-04-06T01:51:06.409Z,25.09
2017-04-06T01:52:06.344Z,24.99
2017-04-06T01:53:06.281Z,24.9
2017-04-06T01:54:06.221Z,24.99
2017-04-06T01:55:06.157Z,24.99
2017-04-06T01:56:06.097Z,24.81
2017-04-06T01:57:06.032Z,25.09
2017-04-06T01:58:05.967Z,24.9
2017-04-06T01:59:05.906Z,25.09
2017-04-06T02:00:05.846Z,24.99
2017-04-06T02:01:05.783Z,25.2
2017-04-06T02:02:05.414Z,25.2
2017-04-06T02:03:05.657Z,24.9
2017-04-06T02:04:05.602Z,25.1
2017-04-06T02:05:05.530Z,24.91
2017-04-06T02:06:05.468Z,24.99
2017-04-06T02:07:05.407Z,25.09
2017-04-06T02:08:05.345Z,25.1
2017-04-06T02:09:05.288Z,24.91
2017-04-06T02:10:05.262Z,25.09
2017-04-06T02:11:05.173Z,25.09
2017-04-06T02:12:05.092Z,25.2
2017-04-06T02:13:05.030Z,24.99
2017-04-06T02:14:04.969Z,25.09
2017-04-06T02:15:04.906Z,25.09
2017-04-06T02:16:04.852Z,25.09
2017-04-06T02:17:04.781Z,25.2
2017-04-06T02:18:04.717Z,25.09
2017-04-06T02:19:04.655Z,24.99
2017-04-06T02:20:04.593Z,25.09
2017-04-06T02:21:04.530Z,24.99
2017-04-06T02:22:04.471Z,25.1
2017-04-06T02:23:04.404Z,25.19
2017-04-06T02:24:04.340Z,25.1
2017-04-06T02:25:04.285Z,24.99
2017-04-06T02:26:04.218Z,25.01
2017-04-06T02:27:04.155Z,24.99
2017-04-06T02:28:04.092Z,25.09
2017-04-06T02:29:04.035Z,25.1
2017-04-06T02:30:03.967Z,24.99
2017-04-06T02:31:03.927Z,25.2
2017-04-06T02:32:03.841Z,25.09
2017-04-06T02:33:03.789Z,25.09
2017-04-06T02:34:03.717Z,25.1
2017-04-06T02:35:03.665Z,25.09
2017-04-06T02:36:03.599Z,25.09
2017-04-06T02:37:03.532Z,25.1
2017-04-06T02:38:03.175Z,25.19
2017-04-06T02:39:03.405Z,25.1
2017-04-06T02:40:03.341Z,25.1
2017-04-06T02:41:03.276Z,25.09
2017-04-06T02:42:03.213Z,25.01
2017-04-06T02:43:03.151Z,25.09
2017-04-06T02:44:03.091Z,24.99
2017-04-06T02:45:03.026Z,24.99
2017-04-06T02:46:02.962Z,25.09
2017-04-06T02:47:02.901Z,25.09
2017-04-06T02:48:02.840Z,25.01
2017-04-06T02:49:02.777Z,25.01
2017-04-06T02:50:02.712Z,25.01
2017-04-06T02:51:02.651Z,24.99
2017-04-06T02:52:02.592Z,25.01
2017-04-06T02:53:02.524Z,24.99
2017-04-06T02:54:02.462Z,25.01
2017-04-06T02:55:02.403Z,25.01
2017-04-06T02:56:02.339Z,24.99
2017-04-06T02:57:02.275Z,25.09
2017-04-06T02:58:02.212Z,24.99
2017-04-06T02:59:02.149Z,25.19
2017-04-06T03:00:02.086Z,25.01
2017-04-06T03:01:02.027Z,25.19
2017-04-06T03:02:01.968Z,25.19
2017-04-06T03:03:01.898Z,24.99
2017-04-06T03:04:01.834Z,25.1
2017-04-06T03:05:01.772Z,25.19
2017-04-06T03:06:01.715Z,24.99
2017-04-06T03:07:01.647Z,24.99
2017-04-06T03:08:01.585Z,25.01
2017-04-06T03:09:01.525Z,25.19
2017-04-06T03:10:01.461Z,24.99
2017-04-06T03:11:01.398Z,24.99
2017-04-06T03:12:01.038Z,25.09
2017-04-06T03:13:01.272Z,25.1
2017-04-06T03:14:01.232Z,25.1
2017-04-06T03:15:01.150Z,25.2
2017-04-06T03:16:01.092Z,25.19
2017-04-06T03:17:01.022Z,25.09
2017-04-06T03:18:00.961Z,25.19
2017-04-06T03:19:00.897Z,25.29
2017-04-06T03:20:00.834Z,25.28
2017-04-06T03:21:00.771Z,25.09
2017-04-06T03:22:00.709Z,25.09
2017-04-06T03:23:00.646Z,25.29
2017-04-06T03:24:00.585Z,25.09
2017-04-06T03:25:00.520Z,25.2
2017-04-06T03:26:00.458Z,25.09
2017-04-06T03:27:00.396Z,25.2
2017-04-06T03:28:00.336Z,25.09
2017-04-06T03:29:00.270Z,25.1
2017-04-06T03:30:00.207Z,25.09
2017-04-06T03:31:00.145Z,25.09
2017-04-06T03:32:00.112Z,25.19
2017-04-06T03:33:00.018Z,25.09
2017-04-06T03:33:59.956Z,25.2
2017-04-06T03:34:59.895Z,25.19
2017-04-06T03:35:59.831Z,25.19
2017-04-06T03:36:59.768Z,25.2
2017-04-06T03:37:59.705Z,25.1
2017-04-06T03:38:59.643Z,25.2
2017-04-06T03:39:59.581Z,25.09
2017-04-06T03:40:59.518Z,25.2
2017-04-06T03:41:59.456Z,25.1
2017-04-06T03:42:59.395Z,25.19
2017-04-06T03:43:59.331Z,25.29
2017-04-06T03:44:59.269Z,25.1
2017-04-06T03:45:59.209Z,25.19
2017-04-06T03:46:59.143Z,25.09
2017-04-06T03:47:59.080Z,25.19
2017-04-06T03:48:59.016Z,25.09
2017-04-06T03:49:58.953Z,25.09
2017-04-06T03:50:58.892Z,25.09
2017-04-06T03:51:58.828Z,25.09
2017-04-06T03:52:58.766Z,25.09
2017-04-06T03:53:58.703Z,25.19
2017-04-06T03:54:58.641Z,25.19
2017-04-06T03:55:58.275Z,25.09
2017-04-06T03:56:58.517Z,25.09
2017-04-06T03:57:58.151Z,25.09
2017-04-06T03:58:58.088Z,25.1
2017-04-06T03:59:58.330Z,25.2
2017-04-06T04:00:58.265Z,25.19
2017-04-06T04:01:58.203Z,25.19
2017-04-06T04:02:58.139Z,25.19
2017-04-06T04:03:58.080Z,25.09
2017-04-06T04:04:58.015Z,25.1
2017-04-06T04:05:57.952Z,25.09
2017-04-06T04:06:57.890Z,24.9
2017-04-06T04:07:57.828Z,24.32
2017-04-06T04:08:57.763Z,24.62
2017-04-06T04:09:57.701Z,24.32
2017-04-06T04:10:57.638Z,24.71
2017-04-06T04:11:57.578Z,24.43
2017-04-06T04:12:57.512Z,24.33
2017-04-06T04:13:57.450Z,24.22
2017-04-06T04:14:57.388Z,24.23
2017-04-06T04:15:57.326Z,24.13
2017-04-06T04:16:56.960Z,24.23
2017-04-06T04:17:57.199Z,24.14
2017-04-06T04:18:57.137Z,24.13
2017-04-06T04:19:57.074Z,24.32
2017-04-06T04:20:57.012Z,23.94
2017-04-06T04:21:56.950Z,23.85
2017-04-06T04:22:56.886Z,23.83
2017-04-06T04:23:56.824Z,23.94
2017-04-06T04:24:56.762Z,23.83
2017-04-06T04:25:56.701Z,23.93
2017-04-06T04:26:56.636Z,23.75
2017-04-06T04:27:56.573Z,23.74
2017-04-06T04:28:56.514Z,23.93
2017-04-06T04:29:56.448Z,23.46
2017-04-06T04:30:56.386Z,23.83
2017-04-06T04:31:56.321Z,23.36
2017-04-06T04:32:56.260Z,23.55
2017-04-06T04:33:56.200Z,24.03
2017-04-06T04:34:56.133Z,23.93
2017-04-06T04:35:56.072Z,23.65
2017-04-06T04:36:56.010Z,23.74
2017-04-06T04:37:55.946Z,23.55
2017-04-06T04:38:55.884Z,23.56
2017-04-06T04:39:55.835Z,23.35
2017-04-06T04:40:55.762Z,23.46
2017-04-06T04:41:55.698Z,23.65
2017-04-06T04:42:55.633Z,23.85
2017-04-06T04:43:55.269Z,23.65
2017-04-06T04:44:55.510Z,23.93
2017-04-06T04:45:55.447Z,23.56
2017-04-06T04:46:55.382Z,23.45
2017-04-06T04:47:55.321Z,23.36
2017-04-06T04:48:55.259Z,23.93
2017-04-06T04:49:55.196Z,23.74
2017-04-06T04:50:55.134Z,23.45
2017-04-06T04:51:55.070Z,23.45
2017-04-06T04:52:55.008Z,23.74
2017-04-06T04:53:54.946Z,23.83
2017-04-06T04:54:54.883Z,23.83
2017-04-06T04:55:54.824Z,23.83
2017-04-06T04:56:54.758Z,23.75
2017-04-06T04:57:54.694Z,23.74
2017-04-06T04:58:54.633Z,23.74
2017-04-06T04:59:54.569Z,23.74
2017-04-06T05:00:54.506Z,23.75
2017-04-06T05:01:54.448Z,23.93
2017-04-06T05:02:54.380Z,24.03
2017-04-06T05:03:54.318Z,23.74
2017-04-06T05:04:54.257Z,24.03
2017-04-06T05:05:54.193Z,23.74
2017-04-06T05:06:53.829Z,23.65
2017-04-06T05:07:53.771Z,23.93
2017-04-06T05:08:54.016Z,23.83
2017-04-06T05:09:53.943Z,23.85
2017-04-06T05:10:53.882Z,23.93
2017-04-06T05:11:53.820Z,24.03
2017-04-06T05:12:53.756Z,23.93
2017-04-06T05:13:53.692Z,23.83
2017-04-06T05:14:53.630Z,23.83
2017-04-06T05:15:53.567Z,23.83
2017-04-06T05:16:53.505Z,23.85
2017-04-06T05:17:53.440Z,23.83
2017-04-06T05:18:53.380Z,23.83
2017-04-06T05:19:53.319Z,24.13
2017-04-06T05:20:53.253Z,23.83
2017-04-06T05:21:53.191Z,24.03
2017-04-06T05:22:53.128Z,24.22
2017-04-06T05:23:53.074Z,24.14
2017-04-06T05:24:53.004Z,24.13
2017-04-06T05:25:52.940Z,24.13
2017-04-06T05:26:52.879Z,24.03
2017-04-06T05:27:52.815Z,23.85
2017-04-06T05:28:52.753Z,23.74
2017-04-06T05:29:52.689Z,23.56
2017-04-06T05:30:52.978Z,23.56
2017-04-06T05:31:52.566Z,23.27
2017-04-06T05:32:52.499Z,23.65
2017-04-06T05:33:52.136Z,23.83
2017-04-06T05:34:52.376Z,23.36
2017-04-06T05:35:52.314Z,23.46
2017-04-06T05:36:52.251Z,23.75
2017-04-06T05:37:51.896Z,23.36
2017-04-06T05:38:52.123Z,23.17
2017-04-06T05:39:52.065Z,23.65
2017-04-06T05:40:52.000Z,23.75
2017-04-06T05:41:51.938Z,23.35
2017-04-06T05:42:51.875Z,23.46
2017-04-06T05:43:51.814Z,23.46
2017-04-06T05:44:51.749Z,23.56
2017-04-06T05:45:51.384Z,23.36
2017-04-06T05:46:51.626Z,23.27
2017-04-06T05:47:51.561Z,23.17
2017-04-06T05:48:51.499Z,23.16
2017-04-06T05:49:51.436Z,23.17
2017-04-06T05:50:51.077Z,23.08
2017-04-06T05:51:51.326Z,23.08
2017-04-06T05:52:51.251Z,23.16
2017-04-06T05:53:51.186Z,23.25
2017-04-06T05:54:51.123Z,23.16
2017-04-06T05:55:51.060Z,23.16
2017-04-06T05:56:50.997Z,23.35
2017-04-06T05:57:50.935Z,23.27
2017-04-06T05:58:50.870Z,23.25
2017-04-06T05:59:50.809Z,22.69
2017-04-06T06:00:50.748Z,22.87
2017-04-06T06:01:50.683Z,22.87
2017-04-06T06:02:50.622Z,23.16
2017-04-06T06:03:50.558Z,23.25
2017-04-06T06:04:50.496Z,23.25
2017-04-06T06:05:50.536Z,22.67
2017-04-06T06:06:50.371Z,23.27
2017-04-06T06:07:50.011Z,23.25
2017-04-06T06:08:50.247Z,23.35
2017-04-06T06:09:50.182Z,23.27
2017-04-06T06:10:50.121Z,23.35
2017-04-06T06:11:50.058Z,23.55
2017-04-06T06:12:50.206Z,22.78
2017-04-06T06:13:49.932Z,22.77
2017-04-06T06:14:49.869Z,22.87
2017-04-06T06:15:49.810Z,22.98
2017-04-06T06:16:49.744Z,22.87
2017-04-06T06:17:49.680Z,22.97
2017-04-06T06:18:49.317Z,22.87
2017-04-06T06:19:49.257Z,22.88
2017-04-06T06:20:49.494Z,22.77
2017-04-06T06:21:49.129Z,23.07
2017-04-06T06:22:49.368Z,22.97
2017-04-06T06:23:49.305Z,22.87
2017-04-06T06:24:49.242Z,23.07
2017-04-06T06:25:49.192Z,23.07
2017-04-06T06:26:49.119Z,23.07
2017-04-06T06:27:49.052Z,23.07
2017-04-06T06:28:48.991Z,23.07
2017-04-06T06:29:48.935Z,22.98
2017-04-06T06:30:48.866Z,23.16
2017-04-06T06:31:48.804Z,23.08
2017-04-06T06:32:48.741Z,23.07
2017-04-06T06:33:48.681Z,23.07
2017-04-06T06:34:48.614Z,23.07
2017-04-06T06:35:48.553Z,23.08
2017-04-06T06:36:48.492Z,22.98
2017-04-06T06:37:48.139Z,22.97
2017-04-06T06:38:48.365Z,22.97
2017-04-06T06:39:48.304Z,23.08
2017-04-06T06:40:48.241Z,22.88
2017-04-06T06:41:48.177Z,23.08
2017-04-06T06:42:48.120Z,22.88
2017-04-06T06:43:48.052Z,22.87
2017-04-06T06:44:47.989Z,22.98
2017-04-06T06:45:47.926Z,23.17
2017-04-06T06:46:47.863Z,23.46
2017-04-06T06:47:47.801Z,23.36
2017-04-06T06:48:47.740Z,23.27
2017-04-06T06:49:47.675Z,22.87
2017-04-06T06:50:47.618Z,23.16
2017-04-06T06:51:47.560Z,23.25
2017-04-06T06:52:47.184Z,23.35
2017-04-06T06:53:47.424Z,23.27
2017-04-06T06:54:47.365Z,23.07
2017-04-06T06:55:47.301Z,23.16
2017-04-06T06:56:47.240Z,23.25
2017-04-06T06:57:47.175Z,23.16
2017-04-06T06:58:47.114Z,23.25
2017-04-06T06:59:47.054Z,23.25
2017-04-06T07:00:46.985Z,23.65
2017-04-06T07:01:46.923Z,23.55
2017-04-06T07:02:46.861Z,23.75
2017-04-06T07:03:46.806Z,23.35
2017-04-06T07:04:46.738Z,23.65
2017-04-06T07:05:46.822Z,23.56
2017-04-06T07:06:46.610Z,23.75
2017-04-06T07:07:46.546Z,24.04
2017-04-06T07:08:46.483Z,24.43
2017-04-06T07:09:46.422Z,24.62
2017-04-06T07:10:46.367Z,24.33
2017-04-06T07:11:46.303Z,24.43
2017-04-06T07:12:46.239Z,24.62
2017-04-06T07:13:46.170Z,24.52
2017-04-06T07:14:46.108Z,24.33
2017-04-06T07:15:46.077Z,24.81
2017-04-06T07:16:45.983Z,24.72
2017-04-06T07:17:45.924Z,24.62
2017-04-06T07:18:45.554Z,24.72
2017-04-06T07:19:45.793Z,25.1
2017-04-06T07:20:45.733Z,25.49
2017-04-06T07:21:45.672Z,25.49
2017-04-06T07:22:45.608Z,25.39
2017-04-06T07:23:45.543Z,25.39
2017-04-06T07:24:45.482Z,25.49
2017-04-06T07:25:45.425Z,25.49
2017-04-06T07:26:45.357Z,25.68
2017-04-06T07:27:45.296Z,25.68
2017-04-06T07:28:45.232Z,25.78
2017-04-06T07:29:45.169Z,25.78
2017-04-06T07:30:44.813Z,25.87
2017-04-06T07:31:45.054Z,25.59
2017-04-06T07:32:44.982Z,25.49
2017-04-06T07:33:44.918Z,25.68
2017-04-06T07:34:44.857Z,25.68
2017-04-06T07:35:44.802Z,25.59
2017-04-06T07:36:44.735Z,25.87
2017-04-06T07:37:44.670Z,25.87
2017-04-06T07:38:44.637Z,25.87
2017-04-06T07:39:44.546Z,25.97
2017-04-06T07:40:44.483Z,25.78
2017-04-06T07:41:44.421Z,25.78
2017-04-06T07:42:44.357Z,25.78
2017-04-06T07:43:44.295Z,25.68
2017-04-06T07:44:44.234Z,25.87
2017-04-06T07:45:44.173Z,25.68
2017-04-06T07:46:44.123Z,25.87
2017-04-06T07:47:44.048Z,25.68
2017-04-06T07:48:43.983Z,25.78
2017-04-06T07:49:43.921Z,25.78
2017-04-06T07:50:43.858Z,25.78
2017-04-06T07:51:43.798Z,25.97
2017-04-06T07:52:43.735Z,26.07
2017-04-06T07:53:43.701Z,25.89
2017-04-06T07:54:43.611Z,25.97
2017-04-06T07:55:43.550Z,25.98
2017-04-06T07:56:43.490Z,26.07
2017-04-06T07:57:43.424Z,26.28
2017-04-06T07:58:43.360Z,25.97
2017-04-06T07:59:43.302Z,25.97
2017-04-06T08:00:43.236Z,26.17
2017-04-06T08:01:43.175Z,26.17
2017-04-06T08:02:43.115Z,26.17
2017-04-06T08:03:43.049Z,25.97
2017-04-06T08:04:42.987Z,25.7
2017-04-06T08:05:42.925Z,25.6
2017-04-06T08:06:42.863Z,25.79
2017-04-06T08:07:42.802Z,25.97
2017-04-06T08:08:42.739Z,25.98
2017-04-06T08:09:42.679Z,25.7
2017-04-06T08:10:42.615Z,25.89
2017-04-06T08:11:42.561Z,25.79
2017-04-06T08:12:42.490Z,25.7
2017-04-06T08:13:42.427Z,25.7
2017-04-06T08:14:42.083Z,25.5
2017-04-06T08:15:42.306Z,25.98
2017-04-06T08:16:42.240Z,25.98
2017-04-06T08:17:42.185Z,25.89
2017-04-06T08:18:42.118Z,25.98
2017-04-06T08:19:42.056Z,25.89
2017-04-06T08:20:42.093Z,25.79
2017-04-06T08:21:41.631Z,26.28
2017-04-06T08:22:41.873Z,26.18
2017-04-06T08:23:41.807Z,25.98
2017-04-06T08:24:41.743Z,25.89
2017-04-06T08:25:41.388Z,25.79
2017-04-06T08:26:41.621Z,26.28
2017-04-06T08:27:41.555Z,26.46
2017-04-06T08:28:41.496Z,25.89
2017-04-06T08:29:41.696Z,26.28
2017-04-06T08:30:41.069Z,27.34
2017-04-06T08:31:41.312Z,27.24
2017-04-06T08:32:41.248Z,27.14
2017-04-06T08:33:41.188Z,27.62
2017-04-06T08:34:41.125Z,27.44
2017-04-06T08:35:41.064Z,27.44
2017-04-06T08:36:41.000Z,27.62
2017-04-06T08:37:40.651Z,27.72
2017-04-06T08:38:40.875Z,27.92
2017-04-06T08:39:40.814Z,27.72
2017-04-06T08:40:40.750Z,28.2
2017-04-06T08:41:40.454Z,28.3
2017-04-06T08:42:40.626Z,28.02
2017-04-06T08:43:40.267Z,27.92
2017-04-06T08:44:40.504Z,28.59
2017-04-06T08:45:40.291Z,28.69
2017-04-06T08:46:40.378Z,28.4
2017-04-06T08:47:40.316Z,28.4
2017-04-06T08:48:40.258Z,28.78
2017-04-06T08:49:40.195Z,28.59
2017-04-06T08:50:40.287Z,28.4
2017-04-06T08:51:40.067Z,28.3
2017-04-06T08:52:40.006Z,28.78
2017-04-06T08:53:39.944Z,28.4
2017-04-06T08:54:39.882Z,28.88
2017-04-06T08:55:39.822Z,28.61
2017-04-06T08:56:39.759Z,28.51
2017-04-06T08:57:39.724Z,28.5
2017-04-06T08:58:39.633Z,28.5
2017-04-06T08:59:39.575Z,28.69
2017-04-06T09:00:39.476Z,28.4
2017-04-06T09:01:39.451Z,28.7
2017-04-06T09:02:39.386Z,28.31
2017-04-06T09:03:39.023Z,28.4
2017-04-06T09:04:38.962Z,28.4
2017-04-06T09:05:38.901Z,28.22
2017-04-06T09:06:38.837Z,28.31
2017-04-06T09:07:39.078Z,28.7
2017-04-06T09:08:39.015Z,28.41
2017-04-06T09:09:38.953Z,28.31
2017-04-06T09:10:38.902Z,27.64
2017-04-06T09:11:38.837Z,27.15
2017-04-06T09:12:38.769Z,26.39
2017-04-06T09:13:38.730Z,25.99
2017-04-06T09:14:38.650Z,25.71
2017-04-06T09:15:38.581Z,26.97
2017-04-06T09:16:38.528Z,25.61
2017-04-06T09:17:38.457Z,25.81
2017-04-06T09:18:38.414Z,25.89
2017-04-06T09:19:38.356Z,25.51
2017-04-06T09:20:38.624Z,25.42
2017-04-06T09:21:38.211Z,25.21
2017-04-06T09:22:38.148Z,25.21
2017-04-06T09:23:38.087Z,24.92
2017-04-06T09:24:38.028Z,24.24
2017-04-06T09:25:38.568Z,24.73
2017-04-06T09:26:37.901Z,24.24
2017-04-06T09:27:37.839Z,23.96
2017-04-06T09:28:37.476Z,23.76
2017-04-06T09:29:37.716Z,23.86
2017-04-06T09:30:37.652Z,24.05
2017-04-06T09:31:37.593Z,23.38
2017-04-06T09:32:37.532Z,23.38
2017-04-06T09:33:37.475Z,23.28
2017-04-06T09:34:37.406Z,23.08
2017-04-06T09:35:37.346Z,23.66
2017-04-06T09:36:37.301Z,23.18
2017-04-06T09:37:37.224Z,22.89
2017-04-06T09:38:36.856Z,23.38
2017-04-06T09:39:37.096Z,23.38
2017-04-06T09:40:36.733Z,23.28
2017-04-06T09:41:36.972Z,23.19
2017-04-06T09:42:36.923Z,23.29
2017-04-06T09:43:36.848Z,23.18
2017-04-06T09:44:36.785Z,22.91
2017-04-06T09:45:36.726Z,24.16
2017-04-06T09:46:36.663Z,23.77
2017-04-06T09:47:36.601Z,24.16
2017-04-06T09:48:36.542Z,23.68
2017-04-06T09:49:36.478Z,23.58
2017-04-06T09:50:36.418Z,24.65
2017-04-06T09:51:36.353Z,23.39
2017-04-06T09:52:36.296Z,23.87
2017-04-06T09:53:36.231Z,24.84
2017-04-06T09:54:36.169Z,24.55
2017-04-06T09:55:36.107Z,24.35
2017-04-06T09:56:35.743Z,24.55
2017-04-06T09:57:35.984Z,23.97
2017-04-06T09:58:35.921Z,24.93
2017-04-06T09:59:35.859Z,24.65
2017-04-06T10:00:35.798Z,24.55
2017-04-06T10:01:35.736Z,24.74
2017-04-06T10:02:35.673Z,25.03
2017-04-06T10:03:35.613Z,25.13
2017-04-06T10:04:35.561Z,25.03
2017-04-06T10:05:35.502Z,25.13
2017-04-06T10:06:35.435Z,24.84
2017-04-06T10:07:35.364Z,24.93
2017-04-06T10:08:35.303Z,24.55
2017-04-06T10:09:35.241Z,23.87
2017-04-06T10:10:35.179Z,23.58
2017-04-06T10:11:35.126Z,23
2017-04-06T10:12:35.058Z,22.91
2017-04-06T10:13:34.690Z,23.58
2017-04-06T10:14:34.933Z,23.87
2017-04-06T10:15:34.872Z,23.49
2017-04-06T10:16:34.811Z,23.68
2017-04-06T10:17:34.748Z,23.77
2017-04-06T10:18:34.687Z,23.49
2017-04-06T10:19:34.624Z,24.55
2017-04-06T10:20:34.561Z,24.55
2017-04-06T10:21:34.539Z,24.93
2017-04-06T10:22:34.134Z,25.23
2017-04-06T10:23:34.378Z,24.84
2017-04-06T10:24:34.314Z,25.42
2017-04-06T10:25:34.256Z,25.81
2017-04-06T10:26:34.192Z,25.61
2017-04-06T10:27:34.130Z,25.9
2017-04-06T10:28:34.067Z,26.09
2017-04-06T10:29:34.007Z,26.29
2017-04-06T10:30:33.944Z,26.19
2017-04-06T10:31:33.884Z,26.87
2017-04-06T10:32:33.825Z,26.57
2017-04-06T10:33:33.759Z,26.57
2017-04-06T10:34:33.409Z,26.77
2017-04-06T10:35:33.636Z,26.57
2017-04-06T10:36:33.573Z,27.25
2017-04-06T10:37:33.210Z,27.73
2017-04-06T10:38:33.453Z,27.35
2017-04-06T10:39:33.390Z,26.29
2017-04-06T10:40:33.328Z,26.67
2017-04-06T10:41:33.269Z,26.19
2017-04-06T10:42:33.208Z,26.39
2017-04-06T10:43:33.156Z,26.09
2017-04-06T10:44:33.082Z,25.99
2017-04-06T10:45:33.027Z,25.03
2017-04-06T10:46:32.957Z,23.58
2017-04-06T10:47:32.898Z,23.29
2017-04-06T10:48:32.835Z,23.1
2017-04-06T10:49:32.774Z,22.61
2017-04-06T10:50:32.409Z,22.42
2017-04-06T10:51:32.651Z,21.55
2017-04-06T10:52:32.288Z,21.75
2017-04-06T10:53:32.527Z,21.65
2017-04-06T10:54:32.162Z,21.84
2017-04-06T10:55:32.103Z,21.84
2017-04-06T10:56:32.342Z,21.45
2017-04-06T10:57:32.286Z,20.97
2017-04-06T10:58:32.218Z,20.87
2017-04-06T10:59:32.156Z,20.59
2017-04-06T11:00:32.322Z,21.07
2017-04-06T11:01:32.034Z,20.87
2017-04-06T11:02:31.981Z,20.96
2017-04-06T11:03:31.910Z,20.28
2017-04-06T11:04:31.973Z,21.06
2017-04-06T11:05:31.788Z,20.59
2017-04-06T11:06:31.725Z,20.39
2017-04-06T11:07:31.664Z,21.26
2017-04-06T11:08:31.601Z,21.07
2017-04-06T11:09:31.540Z,21.45
2017-04-06T11:10:31.488Z,21.36
2017-04-06T11:11:31.416Z,21.84
2017-04-06T11:12:31.352Z,21.75
2017-04-06T11:13:31.291Z,21.65
2017-04-06T11:14:31.239Z,21.75
2017-04-06T11:15:31.179Z,21.75
2017-04-06T11:16:31.103Z,21.65
2017-04-06T11:17:31.051Z,21.94
2017-04-06T11:18:30.990Z,21.84
2017-04-06T11:19:30.927Z,21.65
2017-04-06T11:20:30.871Z,21.75
2017-04-06T11:21:30.804Z,21.65
2017-04-06T11:22:30.744Z,21.65
2017-04-06T11:23:30.679Z,21.45
2017-04-06T11:24:30.618Z,21.55
2017-04-06T11:25:30.560Z,21.45
2017-04-06T11:26:30.496Z,21.45
2017-04-06T11:27:30.429Z,22.13
2017-04-06T11:28:30.367Z,21.55
2017-04-06T11:29:30.303Z,22.23
2017-04-06T11:30:30.239Z,22.13
2017-04-06T11:31:30.178Z,22.13
2017-04-06T11:32:30.115Z,21.84
2017-04-06T11:33:30.053Z,22.23
2017-04-06T11:34:29.991Z,22.23
2017-04-06T11:35:29.632Z,22.23
2017-04-06T11:36:29.568Z,22.33
2017-04-06T11:37:29.501Z,22.23
2017-04-06T11:38:29.750Z,22.23
2017-04-06T11:39:29.684Z,22.61
2017-04-06T11:40:29.620Z,22.71
2017-04-06T11:41:29.254Z,22.33
2017-04-06T11:42:29.495Z,22.42
2017-04-06T11:43:29.434Z,22.33
2017-04-06T11:44:29.372Z,22.33
2017-04-06T11:45:29.006Z,22.42
2017-04-06T11:46:29.249Z,22.42
2017-04-06T11:47:29.190Z,22.33
2017-04-06T11:48:29.124Z,22.33
2017-04-06T11:49:29.076Z,22.23
2017-04-06T11:50:29.000Z,22.23
2017-04-06T11:51:28.939Z,22.23
2017-04-06T11:52:28.876Z,22.23
2017-04-06T11:53:28.814Z,22.23
2017-04-06T11:54:28.960Z,22.33
2017-04-06T11:55:28.695Z,22.23
2017-04-06T11:56:28.631Z,22.33
2017-04-06T11:57:28.567Z,22.23
2017-04-06T11:58:28.505Z,22.33
2017-04-06T11:59:28.455Z,22.13
2017-04-06T12:00:28.380Z,22.23
2017-04-06T12:01:28.318Z,22.33
2017-04-06T12:02:28.256Z,22.23
2017-04-06T12:03:28.192Z,23.77
2017-04-06T12:04:28.132Z,22.91
2017-04-06T12:05:28.070Z,22.61
2017-04-06T12:06:28.016Z,22.42
2017-04-06T12:07:27.952Z,22.42
2017-04-06T12:08:27.887Z,21.65
2017-04-06T12:09:27.821Z,21.65
2017-04-06T12:10:27.806Z,21.65
2017-04-06T12:11:27.696Z,21.65
2017-04-06T12:12:27.636Z,21.84
2017-04-06T12:13:27.574Z,21.84
2017-04-06T12:14:27.511Z,22.23
2017-04-06T12:15:27.448Z,23
2017-04-06T12:16:27.086Z,23.87
2017-04-06T12:17:27.326Z,23.68
2017-04-06T12:18:27.261Z,23.1
2017-04-06T12:19:26.987Z,23
2017-04-06T12:20:27.162Z,23.29
2017-04-06T12:21:27.079Z,22.71
2017-04-06T12:22:27.020Z,23.87
2017-04-06T12:23:26.953Z,25.13
2017-04-06T12:24:26.893Z,24.35
2017-04-06T12:25:26.829Z,24.35
2017-04-06T12:26:26.768Z,23.58
2017-04-06T12:27:26.726Z,24.07
2017-04-06T12:28:26.686Z,24.16
2017-04-06T12:29:26.581Z,24.35
2017-04-06T12:30:26.522Z,25.03
2017-04-06T12:31:26.460Z,25.61
2017-04-06T12:32:26.402Z,24.74
2017-04-06T12:33:26.353Z,25.32
2017-04-06T12:34:26.275Z,25.9
2017-04-06T12:35:26.237Z,25.71
2017-04-06T12:36:26.152Z,25.9
2017-04-06T12:37:26.090Z,25.23
2017-04-06T12:38:26.029Z,25.99
2017-04-06T12:39:25.964Z,25.99
2017-04-06T12:40:25.908Z,25.99
2017-04-06T12:41:25.845Z,25.99
2017-04-06T12:42:25.788Z,26.09
2017-04-06T12:43:25.722Z,25.81
2017-04-06T12:44:25.657Z,25.99
2017-04-06T12:45:25.598Z,25.51
2017-04-06T12:46:25.538Z,25.51
2017-04-06T12:47:25.473Z,25.32
2017-04-06T12:48:25.414Z,25.61
2017-04-06T12:49:25.352Z,25.51
2017-04-06T12:50:24.986Z,25.61
2017-04-06T12:51:25.228Z,25.23
2017-04-06T12:52:25.168Z,25.71
2017-04-06T12:53:24.806Z,25.81
2017-04-06T12:54:25.043Z,25.51
2017-04-06T12:55:24.698Z,25.42
2017-04-06T12:56:24.922Z,25.62